createdAt,value
2018-09-21T00:00:31.475Z,0
2018-09-21T00:01:40.128Z,0
2018-09-21T00:02:48.771Z,0
2018-09-21T00:03:57.417Z,0
2018-09-21T00:05:06.066Z,0
2018-09-21T00:06:14.721Z,0
2018-09-21T00:07:23.372Z,0
2018-09-21T00:08:32.549Z,0
2018-09-21T00:09:41.195Z,0
2018-09-21T00:10:49.839Z,0
2018-09-21T00:11:58.494Z,0
2018-09-21T00:13:07.407Z,0
2018-09-21T00:14:16.059Z,0
2018-09-21T00:15:24.696Z,0
2018-09-21T00:16:33.622Z,0
2018-09-21T00:17:42.268Z,0
2018-09-21T00:18:51.186Z,0
2018-09-21T00:19:59.822Z,0
2018-09-21T00:21:08.745Z,0
2018-09-21T00:22:17.391Z,0
2018-09-21T00:23:26.046Z,0
2018-09-21T00:24:34.949Z,0
2018-09-21T00:25:43.870Z,0
2018-09-21T00:26:52.785Z,0
2018-09-21T00:28:01.440Z,0
2018-09-21T00:29:10.090Z,0
2018-09-21T00:30:18.726Z,0
2018-09-21T00:31:27.375Z,0
2018-09-21T00:32:36.018Z,0
2018-09-21T00:33:44.677Z,0
2018-09-21T00:34:53.314Z,0
2018-09-21T00:36:01.967Z,0
2018-09-21T00:37:10.609Z,0
2018-09-21T00:38:19.532Z,0
2018-09-21T00:39:28.172Z,0
2018-09-21T00:40:36.822Z,0
2018-09-21T00:41:45.465Z,0
2018-09-21T00:42:54.123Z,0
2018-09-21T00:44:02.776Z,0
2018-09-21T00:45:11.418Z,0
2018-09-21T00:46:20.064Z,0
2018-09-21T00:47:28.708Z,0
2018-09-21T00:48:37.365Z,0
2018-09-21T00:49:46.003Z,0
2018-09-21T00:50:54.655Z,0
2018-09-21T00:52:03.293Z,0
2018-09-21T00:53:11.949Z,0
2018-09-21T00:54:20.595Z,0
2018-09-21T00:55:29.510Z,0
2018-09-21T00:56:38.149Z,0
2018-09-21T00:57:46.803Z,0
2018-09-21T00:58:55.449Z,0
2018-09-21T01:00:04.100Z,0
2018-09-21T01:01:12.736Z,0
2018-09-21T01:02:21.388Z,0
2018-09-21T01:03:30.311Z,0
2018-09-21T01:04:38.962Z,0
2018-09-21T01:05:47.612Z,0
2018-09-21T01:06:56.255Z,0
2018-09-21T01:08:04.904Z,0
2018-09-21T01:09:13.544Z,0
2018-09-21T01:10:22.200Z,0
2018-09-21T01:11:30.839Z,0
2018-09-21T01:12:39.482Z,0
2018-09-21T01:13:48.130Z,0
2018-09-21T01:14:56.779Z,0
2018-09-21T01:16:05.422Z,0
2018-09-21T01:17:14.071Z,0
2018-09-21T01:18:22.713Z,0
2018-09-21T01:19:31.366Z,0
2018-09-21T01:20:40.275Z,0
2018-09-21T01:21:48.926Z,0
2018-09-21T01:22:57.831Z,0
2018-09-21T01:24:06.477Z,0
2018-09-21T01:25:15.128Z,0
2018-09-21T01:26:23.775Z,0
2018-09-21T01:27:32.428Z,0
2018-09-21T01:28:41.073Z,0
2018-09-21T01:29:49.987Z,0
2018-09-21T01:30:58.633Z,0
2018-09-21T01:32:07.280Z,0
2018-09-21T01:33:16.447Z,0
2018-09-21T01:34:25.100Z,0
2018-09-21T01:35:33.743Z,0
2018-09-21T01:36:42.393Z,0
2018-09-21T01:37:51.036Z,0
2018-09-21T01:38:59.947Z,0
2018-09-21T01:40:08.594Z,0
2018-09-21T01:41:17.247Z,0
2018-09-21T01:42:25.896Z,0
2018-09-21T01:43:34.538Z,0
2018-09-21T01:44:43.183Z,0
2018-09-21T01:45:51.835Z,0
2018-09-21T01:47:00.488Z,0
2018-09-21T01:48:09.130Z,0
2018-09-21T01:49:17.781Z,0
2018-09-21T01:50:26.491Z,0
2018-09-21T01:51:35.080Z,0
2018-09-21T01:52:44.253Z,0
2018-09-21T01:53:53.167Z,0
2018-09-21T01:55:01.811Z,0
2018-09-21T01:56:10.770Z,0
2018-09-21T01:57:19.632Z,0
2018-09-21T01:58:28.280Z,0
2018-09-21T01:59:36.921Z,0
2018-09-21T02:00:45.567Z,0
2018-09-21T02:01:54.217Z,0
2018-09-21T02:03:02.868Z,0
2018-09-21T02:04:11.516Z,0
2018-09-21T02:05:20.158Z,0
2018-09-21T02:06:28.809Z,0
2018-09-21T02:07:37.457Z,0
2018-09-21T02:08:46.104Z,0
2018-09-21T02:09:55.011Z,0
2018-09-21T02:11:03.675Z,0
2018-09-21T02:12:12.584Z,0
2018-09-21T02:13:21.232Z,0
2018-09-21T02:14:29.867Z,0
2018-09-21T02:15:38.517Z,0
2018-09-21T02:16:47.169Z,0
2018-09-21T02:17:55.818Z,0
2018-09-21T02:19:04.466Z,0
2018-09-21T02:20:13.373Z,0
2018-09-21T02:21:22.297Z,0
2018-09-21T02:22:30.938Z,0
2018-09-21T02:23:39.594Z,0
2018-09-21T02:24:48.497Z,0
2018-09-21T02:25:57.675Z,0
2018-09-21T02:27:06.318Z,0
2018-09-21T02:28:15.238Z,0
2018-09-21T02:29:23.876Z,0
2018-09-21T02:30:32.526Z,0
2018-09-21T02:31:41.188Z,0
2018-09-21T02:32:49.850Z,0
2018-09-21T02:33:58.761Z,0
2018-09-21T02:35:07.408Z,0
2018-09-21T02:36:16.591Z,0
2018-09-21T02:37:25.233Z,0
2018-09-21T02:38:34.155Z,0
2018-09-21T02:39:42.799Z,0
2018-09-21T02:40:51.987Z,0
2018-09-21T02:42:00.622Z,0
2018-09-21T02:43:09.277Z,0
2018-09-21T02:44:17.924Z,0
2018-09-21T02:45:26.579Z,0
2018-09-21T02:46:35.216Z,0
2018-09-21T02:47:43.869Z,0
2018-09-21T02:48:52.618Z,0
2018-09-21T02:50:01.160Z,0
2018-09-21T02:51:10.054Z,0
2018-09-21T02:52:18.704Z,0
2018-09-21T02:53:27.355Z,0
2018-09-21T02:54:36.263Z,0
2018-09-21T02:55:44.933Z,0
2018-09-21T02:56:53.822Z,0
2018-09-21T02:58:02.472Z,0
2018-09-21T02:59:11.109Z,0
2018-09-21T03:00:20.147Z,0
2018-09-21T03:01:28.725Z,0
2018-09-21T03:02:37.643Z,0
2018-09-21T03:03:46.553Z,0
2018-09-21T03:04:55.212Z,0
2018-09-21T03:06:03.846Z,0
2018-09-21T03:07:12.765Z,0
2018-09-21T03:08:21.690Z,0
2018-09-21T03:09:30.335Z,0
2018-09-21T03:10:38.984Z,0
2018-09-21T03:11:47.634Z,0
2018-09-21T03:12:56.821Z,0
2018-09-21T03:14:06.000Z,0
2018-09-21T03:15:14.926Z,0
2018-09-21T03:16:23.580Z,0
2018-09-21T03:17:32.490Z,0
2018-09-21T03:18:41.415Z,0
2018-09-21T03:19:50.048Z,0
2018-09-21T03:20:58.977Z,0
2018-09-21T03:22:07.619Z,0
2018-09-21T03:23:16.274Z,0
2018-09-21T03:24:24.913Z,0
2018-09-21T03:25:33.562Z,0
2018-09-21T03:26:42.203Z,0
2018-09-21T03:27:50.865Z,0
2018-09-21T03:28:59.778Z,0
2018-09-21T03:30:08.425Z,0
2018-09-21T03:31:17.339Z,0
2018-09-21T03:32:25.986Z,0
2018-09-21T03:33:34.643Z,0
2018-09-21T03:34:43.290Z,0
2018-09-21T03:35:51.940Z,0
2018-09-21T03:37:00.579Z,0
2018-09-21T03:38:09.499Z,0
2018-09-21T03:39:18.140Z,0
2018-09-21T03:40:27.070Z,0
2018-09-21T03:41:35.708Z,0
2018-09-21T03:42:44.363Z,0
2018-09-21T03:43:53.286Z,0
2018-09-21T03:45:02.203Z,0
2018-09-21T03:46:10.843Z,0
2018-09-21T03:47:19.760Z,0
2018-09-21T03:48:28.672Z,0
2018-09-21T03:49:37.588Z,0
2018-09-21T03:50:46.508Z,0
2018-09-21T03:51:55.413Z,0
2018-09-21T03:53:04.341Z,0
2018-09-21T03:54:12.986Z,0
2018-09-21T03:55:21.913Z,0
2018-09-21T03:56:30.807Z,0
2018-09-21T03:57:39.463Z,0
2018-09-21T03:58:48.647Z,0
2018-09-21T03:59:57.302Z,0
2018-09-21T04:01:06.289Z,0
2018-09-21T04:02:15.200Z,0
2018-09-21T04:03:23.845Z,0
2018-09-21T04:04:32.502Z,0
2018-09-21T04:05:41.416Z,0
2018-09-21T04:06:50.061Z,0
2018-09-21T04:07:59.249Z,0
2018-09-21T04:09:07.892Z,0
2018-09-21T04:10:16.824Z,0
2018-09-21T04:11:25.472Z,0
2018-09-21T04:12:34.118Z,0
2018-09-21T04:13:42.761Z,0
2018-09-21T04:14:51.418Z,0
2018-09-21T04:16:00.069Z,0
2018-09-21T04:17:08.981Z,0
2018-09-21T04:18:17.898Z,0
2018-09-21T04:19:26.549Z,0
2018-09-21T04:20:35.483Z,0
2018-09-21T04:21:44.394Z,0
2018-09-21T04:22:53.065Z,0
2018-09-21T04:24:01.690Z,0
2018-09-21T04:25:10.608Z,0
2018-09-21T04:26:19.263Z,0
2018-09-21T04:27:27.912Z,0
2018-09-21T04:28:36.822Z,0
2018-09-21T04:29:45.734Z,0
2018-09-21T04:30:54.385Z,0
2018-09-21T04:32:03.035Z,0
2018-09-21T04:33:11.679Z,0
2018-09-21T04:34:20.331Z,0
2018-09-21T04:35:28.978Z,0
2018-09-21T04:36:37.630Z,0
2018-09-21T04:37:46.275Z,0
2018-09-21T04:38:54.925Z,0
2018-09-21T04:40:03.836Z,0
2018-09-21T04:41:12.488Z,0
2018-09-21T04:42:21.139Z,0
2018-09-21T04:43:29.787Z,0
2018-09-21T04:44:38.691Z,0
2018-09-21T04:45:47.650Z,0
2018-09-21T04:46:56.271Z,0
2018-09-21T04:48:04.918Z,0
2018-09-21T04:49:13.572Z,0
2018-09-21T04:50:22.212Z,4
2018-09-21T04:51:31.131Z,0
2018-09-21T04:52:39.781Z,0
2018-09-21T04:53:48.429Z,4
2018-09-21T04:54:57.071Z,4
2018-09-21T04:56:05.723Z,4
2018-09-21T04:57:14.366Z,4
2018-09-21T04:58:23.015Z,8
2018-09-21T04:59:31.657Z,8
2018-09-21T05:00:40.309Z,8
2018-09-21T05:01:49.221Z,8
2018-09-21T05:02:57.872Z,8
2018-09-21T05:04:06.519Z,16
2018-09-21T05:05:15.160Z,16
2018-09-21T05:06:24.072Z,20
2018-09-21T05:07:32.718Z,20
2018-09-21T05:08:41.373Z,20
2018-09-21T05:09:50.020Z,24
2018-09-21T05:10:58.667Z,24
2018-09-21T05:12:07.316Z,28
2018-09-21T05:13:15.966Z,32
2018-09-21T05:14:24.608Z,36
2018-09-21T05:15:33.529Z,40
2018-09-21T05:16:42.176Z,44
2018-09-21T05:17:50.850Z,48
2018-09-21T05:18:59.500Z,52
2018-09-21T05:20:08.409Z,68
2018-09-21T05:21:17.054Z,80
2018-09-21T05:22:25.698Z,88
2018-09-21T05:23:34.346Z,100
2018-09-21T05:24:42.994Z,116
2018-09-21T05:25:51.906Z,124
2018-09-21T05:27:00.550Z,148
2018-09-21T05:28:09.203Z,172
2018-09-21T05:29:17.851Z,196
2018-09-21T05:30:26.501Z,216
2018-09-21T05:31:35.147Z,228
2018-09-21T05:32:43.799Z,240
2018-09-21T05:33:52.446Z,248
2018-09-21T05:35:01.107Z,264
2018-09-21T05:36:09.742Z,288
2018-09-21T05:37:18.391Z,304
2018-09-21T05:38:27.038Z,316
2018-09-21T05:39:35.689Z,304
2018-09-21T05:40:44.338Z,284
2018-09-21T05:41:52.982Z,256
2018-09-21T05:43:01.634Z,224
2018-09-21T05:44:10.543Z,212
2018-09-21T05:45:19.197Z,204
2018-09-21T05:46:27.841Z,212
2018-09-21T05:47:36.487Z,244
2018-09-21T05:48:45.134Z,276
2018-09-21T05:49:53.786Z,320
2018-09-21T05:51:02.430Z,376
2018-09-21T05:52:11.080Z,436
2018-09-21T05:53:19.996Z,516
2018-09-21T05:54:28.650Z,568
2018-09-21T05:55:37.348Z,576
2018-09-21T05:56:45.995Z,576
2018-09-21T05:57:54.643Z,560
2018-09-21T05:59:03.287Z,532
2018-09-21T06:00:11.939Z,504
2018-09-21T06:01:20.585Z,480
2018-09-21T06:02:29.597Z,456
2018-09-21T06:03:38.175Z,472
2018-09-21T06:04:46.830Z,512
2018-09-21T06:05:55.473Z,548
2018-09-21T06:07:04.123Z,568
2018-09-21T06:08:12.764Z,564
2018-09-21T06:09:21.419Z,568
2018-09-21T06:10:30.075Z,564
2018-09-21T06:11:38.981Z,584
2018-09-21T06:12:47.619Z,592
2018-09-21T06:13:56.277Z,608
2018-09-21T06:15:05.194Z,624
2018-09-21T06:16:13.844Z,656
2018-09-21T06:17:22.494Z,704
2018-09-21T06:18:31.133Z,760
2018-09-21T06:19:39.786Z,820
2018-09-21T06:20:48.720Z,892
2018-09-21T06:21:57.370Z,980
2018-09-21T06:23:06.078Z,1104
2018-09-21T06:24:14.661Z,1204
2018-09-21T06:25:23.599Z,1300
2018-09-21T06:26:32.255Z,1384
2018-09-21T06:27:40.900Z,1436
2018-09-21T06:28:49.815Z,1456
2018-09-21T06:29:58.726Z,1464
2018-09-21T06:31:07.378Z,1520
2018-09-21T06:32:16.290Z,1616
2018-09-21T06:33:25.201Z,1684
2018-09-21T06:34:33.849Z,1692
2018-09-21T06:35:42.769Z,1636
2018-09-21T06:36:51.423Z,1564
2018-09-21T06:38:00.331Z,1512
2018-09-21T06:39:08.986Z,1460
2018-09-21T06:40:17.633Z,1424
2018-09-21T06:41:26.291Z,1376
2018-09-21T06:42:34.937Z,1364
2018-09-21T06:43:44.177Z,1344
2018-09-21T06:44:52.817Z,1328
2018-09-21T06:46:01.474Z,1360
2018-09-21T06:47:10.119Z,1404
2018-09-21T06:48:19.052Z,1488
2018-09-21T06:49:27.684Z,1544
2018-09-21T06:50:36.598Z,1620
2018-09-21T06:51:45.509Z,1684
2018-09-21T06:52:54.423Z,1712
2018-09-21T06:54:03.074Z,1848
2018-09-21T06:55:11.717Z,1956
2018-09-21T06:56:20.367Z,1976
2018-09-21T06:57:29.010Z,1996
2018-09-21T06:58:37.671Z,1868
2018-09-21T06:59:46.839Z,1644
2018-09-21T07:00:55.491Z,1484
2018-09-21T07:02:04.173Z,1452
2018-09-21T07:03:13.402Z,1428
2018-09-21T07:04:22.062Z,1400
2018-09-21T07:05:30.708Z,1332
2018-09-21T07:06:39.354Z,1292
2018-09-21T07:07:47.994Z,1292
2018-09-21T07:08:56.644Z,1308
2018-09-21T07:10:05.378Z,1344
2018-09-21T07:11:14.000Z,1316
2018-09-21T07:12:22.876Z,1272
2018-09-21T07:13:31.517Z,1236
2018-09-21T07:14:40.170Z,1148
2018-09-21T07:15:48.830Z,1064
2018-09-21T07:16:57.819Z,1016
2018-09-21T07:18:06.458Z,944
2018-09-21T07:19:15.109Z,848
2018-09-21T07:20:23.758Z,812
2018-09-21T07:21:32.680Z,792
2018-09-21T07:22:41.319Z,812
2018-09-21T07:23:49.970Z,856
2018-09-21T07:24:58.615Z,888
2018-09-21T07:26:07.269Z,896
2018-09-21T07:27:16.178Z,900
2018-09-21T07:28:24.823Z,952
2018-09-21T07:29:33.466Z,1044
2018-09-21T07:30:42.112Z,1160
2018-09-21T07:31:50.770Z,1268
2018-09-21T07:32:59.415Z,1352
2018-09-21T07:34:08.066Z,1424
2018-09-21T07:35:16.969Z,1464
2018-09-21T07:36:25.627Z,1492
2018-09-21T07:37:34.376Z,1584
2018-09-21T07:38:42.931Z,1716
2018-09-21T07:39:51.573Z,1860
2018-09-21T07:41:00.232Z,2072
2018-09-21T07:42:09.144Z,2460
2018-09-21T07:43:17.798Z,2936
2018-09-21T07:44:26.479Z,3420
2018-09-21T07:45:35.092Z,3824
2018-09-21T07:46:43.744Z,4016
2018-09-21T07:47:52.400Z,3980
2018-09-21T07:49:01.169Z,3724
2018-09-21T07:50:09.958Z,3136
2018-09-21T07:51:19.417Z,2660
2018-09-21T07:52:28.324Z,2332
2018-09-21T07:53:36.981Z,2108
2018-09-21T07:54:45.625Z,2068
2018-09-21T07:55:54.275Z,2152
2018-09-21T07:57:02.919Z,2252
2018-09-21T07:58:11.576Z,2296
2018-09-21T07:59:20.214Z,2116
2018-09-21T08:00:28.864Z,1948
2018-09-21T08:01:37.513Z,1776
2018-09-21T08:02:46.433Z,1644
2018-09-21T08:03:55.083Z,1688
2018-09-21T08:05:04.362Z,1756
2018-09-21T08:06:12.983Z,1792
2018-09-21T08:07:22.250Z,1888
2018-09-21T08:08:30.915Z,1956
2018-09-21T08:09:39.564Z,2076
2018-09-21T08:10:48.213Z,2144
2018-09-21T08:11:56.948Z,2228
2018-09-21T08:13:05.630Z,2216
2018-09-21T08:14:14.304Z,2320
2018-09-21T08:15:22.928Z,2368
2018-09-21T08:16:31.572Z,2524
2018-09-21T08:17:40.320Z,2712
2018-09-21T08:18:49.066Z,2824
2018-09-21T08:19:57.718Z,3064
2018-09-21T08:21:06.368Z,3164
2018-09-21T08:22:15.485Z,3672
2018-09-21T08:23:24.208Z,4064
2018-09-21T08:24:32.861Z,4240
2018-09-21T08:25:41.779Z,4180
2018-09-21T08:26:50.513Z,4156
2018-09-21T08:27:59.191Z,3984
2018-09-21T08:29:07.842Z,3868
2018-09-21T08:30:16.495Z,3744
2018-09-21T08:31:25.539Z,3348
2018-09-21T08:32:34.166Z,3172
2018-09-21T08:33:42.816Z,3268
2018-09-21T08:34:51.469Z,3448
2018-09-21T08:36:00.114Z,3656
2018-09-21T08:37:09.109Z,3764
2018-09-21T08:38:18.519Z,3792
2018-09-21T08:39:27.174Z,4172
2018-09-21T08:40:35.819Z,4392
2018-09-21T08:41:44.794Z,4268
2018-09-21T08:42:53.498Z,4244
2018-09-21T08:44:02.093Z,4076
2018-09-21T08:45:10.746Z,3660
2018-09-21T08:46:19.421Z,2356
2018-09-21T08:47:28.333Z,1448
2018-09-21T08:48:36.978Z,964
2018-09-21T08:49:45.632Z,1024
2018-09-21T08:50:54.284Z,1012
2018-09-21T08:52:02.932Z,828
2018-09-21T08:53:11.579Z,1032
2018-09-21T08:54:20.235Z,920
2018-09-21T08:55:28.892Z,1284
2018-09-21T08:56:37.532Z,1320
2018-09-21T08:57:46.178Z,1652
2018-09-21T08:58:54.834Z,1432
2018-09-21T09:00:03.484Z,1212
2018-09-21T09:01:12.139Z,1252
2018-09-21T09:02:20.789Z,864
2018-09-21T09:03:29.491Z,668
2018-09-21T09:04:38.092Z,576
2018-09-21T09:05:46.735Z,916
2018-09-21T09:06:55.396Z,1068
2018-09-21T09:08:04.039Z,1180
2018-09-21T09:09:12.687Z,848
2018-09-21T09:10:21.330Z,388
2018-09-21T09:11:29.994Z,192
2018-09-21T09:12:38.637Z,292
2018-09-21T09:13:47.552Z,428
2018-09-21T09:14:56.196Z,808
2018-09-21T09:16:04.857Z,1140
2018-09-21T09:17:13.768Z,896
2018-09-21T09:18:22.412Z,684
2018-09-21T09:19:31.057Z,704
2018-09-21T09:20:39.705Z,956
2018-09-21T09:21:48.357Z,1256
2018-09-21T09:22:57.261Z,1588
2018-09-21T09:24:05.913Z,1324
2018-09-21T09:25:14.548Z,1308
2018-09-21T09:26:23.213Z,1536
2018-09-21T09:27:31.844Z,1556
2018-09-21T09:28:40.491Z,1416
2018-09-21T09:29:49.418Z,1348
2018-09-21T09:30:58.047Z,1460
2018-09-21T09:32:06.692Z,1500
2018-09-21T09:33:15.342Z,1584
2018-09-21T09:34:23.979Z,1568
2018-09-21T09:35:32.626Z,1536
2018-09-21T09:36:41.284Z,1876
2018-09-21T09:37:50.483Z,2256
2018-09-21T09:38:59.132Z,2316
2018-09-21T09:40:07.768Z,2384
2018-09-21T09:41:16.679Z,2444
2018-09-21T09:42:25.321Z,2452
2018-09-21T09:43:33.979Z,2764
2018-09-21T09:44:42.625Z,3064
2018-09-21T09:45:51.277Z,3628
2018-09-21T09:47:00.181Z,4028
2018-09-21T09:48:08.843Z,4272
2018-09-21T09:49:17.798Z,4268
2018-09-21T09:50:26.656Z,3852
2018-09-21T09:51:35.300Z,3464
2018-09-21T09:52:43.950Z,3184
2018-09-21T09:53:52.591Z,2732
2018-09-21T09:55:01.595Z,2240
2018-09-21T09:56:10.235Z,2236
2018-09-21T09:57:18.880Z,2392
2018-09-21T09:58:27.539Z,2352
2018-09-21T09:59:36.189Z,2480
2018-09-21T10:00:44.835Z,2744
2018-09-21T10:01:53.491Z,2896
2018-09-21T10:03:02.402Z,3108
2018-09-21T10:04:11.317Z,3156
2018-09-21T10:05:19.963Z,3052
2018-09-21T10:06:28.864Z,2636
2018-09-21T10:07:37.515Z,2432
2018-09-21T10:08:46.156Z,2296
2018-09-21T10:09:54.889Z,2356
2018-09-21T10:11:03.734Z,2556
2018-09-21T10:12:12.439Z,2300
2018-09-21T10:13:22.286Z,2292
2018-09-21T10:14:31.546Z,1672
2018-09-21T10:15:40.881Z,2180
2018-09-21T10:16:49.650Z,2580
2018-09-21T10:17:59.439Z,2580
2018-09-21T10:19:08.349Z,2640
2018-09-21T10:20:17.023Z,2468
2018-09-21T10:21:25.662Z,2284
2018-09-21T10:22:34.309Z,1972
2018-09-21T10:23:42.954Z,2316
2018-09-21T10:24:51.619Z,1968
2018-09-21T10:26:00.243Z,2196
2018-09-21T10:27:09.008Z,2040
2018-09-21T10:28:18.109Z,2364
2018-09-21T10:29:26.628Z,3400
2018-09-21T10:30:35.527Z,3456
2018-09-21T10:31:44.200Z,3228
2018-09-21T10:32:52.814Z,3084
2018-09-21T10:34:01.456Z,3220
2018-09-21T10:35:10.103Z,2828
2018-09-21T10:36:18.750Z,2376
2018-09-21T10:37:27.394Z,2136
2018-09-21T10:38:36.051Z,2052
2018-09-21T10:39:44.685Z,2324
2018-09-21T10:40:53.333Z,3000
2018-09-21T10:42:01.980Z,3276
2018-09-21T10:43:11.081Z,3516
2018-09-21T10:44:20.100Z,3508
2018-09-21T10:45:29.002Z,3108
2018-09-21T10:46:37.913Z,2788
2018-09-21T10:47:46.555Z,2752
2018-09-21T10:48:55.204Z,2744
2018-09-21T10:50:03.854Z,2716
2018-09-21T10:51:12.498Z,2968
2018-09-21T10:52:21.146Z,3556
2018-09-21T10:53:30.048Z,3460
2018-09-21T10:54:38.692Z,3148
2018-09-21T10:55:47.603Z,2912
2018-09-21T10:56:56.430Z,2608
2018-09-21T10:58:05.080Z,2716
2018-09-21T10:59:13.725Z,2688
2018-09-21T11:00:22.428Z,2672
2018-09-21T11:01:31.595Z,2520
2018-09-21T11:02:40.372Z,2568
2018-09-21T11:03:49.087Z,3020
2018-09-21T11:04:57.717Z,3232
2018-09-21T11:06:06.525Z,3108
2018-09-21T11:07:15.977Z,3664
2018-09-21T11:08:24.589Z,4332
2018-09-21T11:09:33.521Z,4540
2018-09-21T11:10:42.176Z,4636
2018-09-21T11:11:51.082Z,4004
2018-09-21T11:12:59.808Z,3016
2018-09-21T11:14:08.521Z,2340
2018-09-21T11:15:17.169Z,2360
2018-09-21T11:16:25.819Z,3000
2018-09-21T11:17:34.734Z,3756
2018-09-21T11:18:43.645Z,4656
2018-09-21T11:19:52.829Z,5188
2018-09-21T11:21:01.469Z,5144
2018-09-21T11:22:10.118Z,5364
2018-09-21T11:23:18.760Z,5712
2018-09-21T11:24:27.410Z,5748
2018-09-21T11:25:36.060Z,5212
2018-09-21T11:26:44.705Z,4192
2018-09-21T11:27:53.349Z,3704
2018-09-21T11:29:01.991Z,4464
2018-09-21T11:30:10.641Z,5204
2018-09-21T11:31:19.287Z,4736
2018-09-21T11:32:27.933Z,3692
2018-09-21T11:33:36.574Z,3268
2018-09-21T11:34:45.226Z,3796
2018-09-21T11:35:53.878Z,4472
2018-09-21T11:37:02.527Z,5004
2018-09-21T11:38:11.434Z,5504
2018-09-21T11:39:20.085Z,5428
2018-09-21T11:40:28.757Z,5344
2018-09-21T11:41:37.424Z,5408
2018-09-21T11:42:46.100Z,5492
2018-09-21T11:43:54.774Z,5376
2018-09-21T11:45:03.421Z,5104
2018-09-21T11:46:12.106Z,5600
2018-09-21T11:47:21.220Z,5072
2018-09-21T11:48:29.679Z,3812
2018-09-21T11:49:38.326Z,2292
2018-09-21T11:50:46.976Z,1264
2018-09-21T11:51:55.630Z,1128
2018-09-21T11:53:04.275Z,1188
2018-09-21T11:54:12.922Z,864
2018-09-21T11:55:21.568Z,1108
2018-09-21T11:56:30.222Z,1528
2018-09-21T11:57:39.121Z,1776
2018-09-21T11:58:48.036Z,1804
2018-09-21T11:59:56.679Z,2388
2018-09-21T12:01:05.333Z,3608
2018-09-21T12:02:13.978Z,4340
2018-09-21T12:03:22.619Z,3844
2018-09-21T12:04:31.529Z,2656
2018-09-21T12:05:40.174Z,3128
2018-09-21T12:06:48.830Z,4656
2018-09-21T12:07:57.728Z,3624
2018-09-21T12:09:06.379Z,4348
2018-09-21T12:10:15.017Z,5184
2018-09-21T12:11:23.673Z,5096
2018-09-21T12:12:32.314Z,4960
2018-09-21T12:13:40.966Z,5380
2018-09-21T12:14:49.602Z,5056
2018-09-21T12:15:58.262Z,4040
2018-09-21T12:17:07.045Z,4148
2018-09-21T12:18:15.961Z,4456
2018-09-21T12:19:24.600Z,3712
2018-09-21T12:20:33.247Z,2412
2018-09-21T12:21:41.907Z,2400
2018-09-21T12:22:50.658Z,2196
2018-09-21T12:23:59.202Z,2832
2018-09-21T12:25:08.101Z,2972
2018-09-21T12:26:16.754Z,4188
2018-09-21T12:27:25.396Z,4440
2018-09-21T12:28:34.052Z,4528
2018-09-21T12:29:42.689Z,4480
2018-09-21T12:30:51.344Z,4700
2018-09-21T12:32:00.017Z,4560
2018-09-21T12:33:08.634Z,4480
2018-09-21T12:34:17.277Z,4644
2018-09-21T12:35:26.184Z,4660
2018-09-21T12:36:34.834Z,4764
2018-09-21T12:37:43.488Z,4776
2018-09-21T12:38:52.132Z,4800
2018-09-21T12:40:00.780Z,4840
2018-09-21T12:41:09.424Z,4680
2018-09-21T12:42:18.070Z,4556
2018-09-21T12:43:27.042Z,4332
2018-09-21T12:44:35.759Z,4316
2018-09-21T12:45:44.696Z,4412
2018-09-21T12:46:53.339Z,4388
2018-09-21T12:48:02.033Z,4440
2018-09-21T12:49:10.640Z,4244
2018-09-21T12:50:19.300Z,4232
2018-09-21T12:51:28.184Z,4068
2018-09-21T12:52:36.844Z,3988
2018-09-21T12:53:45.489Z,3984
2018-09-21T12:54:54.131Z,3772
2018-09-21T12:56:02.779Z,3968
2018-09-21T12:57:11.426Z,4304
2018-09-21T12:58:20.149Z,4356
2018-09-21T12:59:28.716Z,4364
2018-09-21T13:00:37.368Z,4268
2018-09-21T13:01:46.013Z,4112
2018-09-21T13:02:54.929Z,3964
2018-09-21T13:04:03.573Z,3960
2018-09-21T13:05:12.216Z,3988
2018-09-21T13:06:21.506Z,3988
2018-09-21T13:07:30.110Z,3964
2018-09-21T13:08:39.285Z,4152
2018-09-21T13:09:47.933Z,4064
2018-09-21T13:10:56.582Z,3920
2018-09-21T13:12:05.226Z,3884
2018-09-21T13:13:13.870Z,4012
2018-09-21T13:14:22.557Z,4240
2018-09-21T13:15:31.160Z,4292
2018-09-21T13:16:39.812Z,4072
2018-09-21T13:17:48.720Z,4116
2018-09-21T13:18:57.366Z,4292
2018-09-21T13:20:06.008Z,5184
2018-09-21T13:21:14.655Z,4608
2018-09-21T13:22:23.584Z,4732
2018-09-21T13:23:32.499Z,4776
2018-09-21T13:24:41.133Z,4984
2018-09-21T13:25:49.781Z,4272
2018-09-21T13:26:58.819Z,4228
2018-09-21T13:28:07.469Z,3952
2018-09-21T13:29:16.110Z,3424
2018-09-21T13:30:24.757Z,3448
2018-09-21T13:31:33.670Z,3304
2018-09-21T13:32:42.321Z,3272
2018-09-21T13:33:50.966Z,3116
2018-09-21T13:34:59.610Z,3028
2018-09-21T13:36:08.515Z,3152
2018-09-21T13:37:17.163Z,3296
2018-09-21T13:38:25.811Z,3444
2018-09-21T13:39:34.456Z,3340
2018-09-21T13:40:43.103Z,3420
2018-09-21T13:41:51.744Z,3652
2018-09-21T13:43:00.396Z,3876
2018-09-21T13:44:09.041Z,4164
2018-09-21T13:45:17.687Z,4448
2018-09-21T13:46:26.328Z,4636
2018-09-21T13:47:34.978Z,4464
2018-09-21T13:48:43.621Z,4136
2018-09-21T13:49:52.270Z,4008
2018-09-21T13:51:00.915Z,4188
2018-09-21T13:52:09.564Z,4340
2018-09-21T13:53:18.484Z,4288
2018-09-21T13:54:27.135Z,4204
2018-09-21T13:55:35.781Z,4536
2018-09-21T13:56:44.419Z,4764
2018-09-21T13:57:53.355Z,4692
2018-09-21T13:59:01.993Z,4264
2018-09-21T14:00:10.649Z,3632
2018-09-21T14:01:19.549Z,3692
2018-09-21T14:02:28.198Z,3236
2018-09-21T14:03:36.843Z,3248
2018-09-21T14:04:45.499Z,2968
2018-09-21T14:05:54.136Z,3036
2018-09-21T14:07:02.785Z,3076
2018-09-21T14:08:11.693Z,3172
2018-09-21T14:09:20.351Z,3036
2018-09-21T14:10:28.995Z,2968
2018-09-21T14:11:37.635Z,2684
2018-09-21T14:12:46.280Z,2608
2018-09-21T14:13:54.923Z,2900
2018-09-21T14:15:03.844Z,2636
2018-09-21T14:16:12.485Z,2180
2018-09-21T14:17:21.136Z,2088
2018-09-21T14:18:29.772Z,2108
2018-09-21T14:19:38.428Z,2072
2018-09-21T14:20:47.069Z,2224
2018-09-21T14:21:55.721Z,2704
2018-09-21T14:23:04.357Z,2992
2018-09-21T14:24:13.045Z,3072
2018-09-21T14:25:21.657Z,3276
2018-09-21T14:26:30.309Z,3272
2018-09-21T14:27:39.212Z,2988
2018-09-21T14:28:47.860Z,2324
2018-09-21T14:29:56.793Z,2120
2018-09-21T14:31:05.438Z,2440
2018-09-21T14:32:14.083Z,3056
2018-09-21T14:33:22.983Z,3084
2018-09-21T14:34:31.900Z,3064
2018-09-21T14:35:40.836Z,3012
2018-09-21T14:36:49.632Z,3032
2018-09-21T14:37:58.094Z,3116
2018-09-21T14:39:06.748Z,2716
2018-09-21T14:40:15.384Z,2660
2018-09-21T14:41:24.042Z,2848
2018-09-21T14:42:32.676Z,3260
2018-09-21T14:43:41.586Z,2756
2018-09-21T14:44:50.229Z,2540
2018-09-21T14:45:58.884Z,2676
2018-09-21T14:47:07.532Z,2564
2018-09-21T14:48:16.176Z,2888
2018-09-21T14:49:24.820Z,2560
2018-09-21T14:50:33.794Z,2048
2018-09-21T14:51:42.396Z,1664
2018-09-21T14:52:51.038Z,1464
2018-09-21T14:53:59.948Z,1412
2018-09-21T14:55:08.865Z,1504
2018-09-21T14:56:17.505Z,1892
2018-09-21T14:57:26.158Z,2004
2018-09-21T14:58:34.794Z,1600
2018-09-21T14:59:43.783Z,1988
2018-09-21T15:00:52.356Z,1588
2018-09-21T15:02:01.003Z,1472
2018-09-21T15:03:09.643Z,1808
2018-09-21T15:04:18.299Z,1628
2018-09-21T15:05:27.202Z,1744
2018-09-21T15:06:35.843Z,1304
2018-09-21T15:07:44.488Z,1292
2018-09-21T15:08:53.130Z,1456
2018-09-21T15:10:01.785Z,1392
2018-09-21T15:11:10.429Z,1304
2018-09-21T15:12:19.341Z,1384
2018-09-21T15:13:28.250Z,1808
2018-09-21T15:14:36.898Z,1744
2018-09-21T15:15:45.538Z,1460
2018-09-21T15:16:54.189Z,1352
2018-09-21T15:18:02.824Z,1208
2018-09-21T15:19:11.480Z,1104
2018-09-21T15:20:20.122Z,1184
2018-09-21T15:21:28.772Z,1200
2018-09-21T15:22:37.409Z,1084
2018-09-21T15:23:46.055Z,1152
2018-09-21T15:24:54.706Z,1112
2018-09-21T15:26:03.353Z,1088
2018-09-21T15:27:12.012Z,1120
2018-09-21T15:28:20.636Z,1148
2018-09-21T15:29:29.285Z,1244
2018-09-21T15:30:37.926Z,1408
2018-09-21T15:31:46.582Z,1220
2018-09-21T15:32:55.218Z,1120
2018-09-21T15:34:04.395Z,1088
2018-09-21T15:35:13.037Z,1136
2018-09-21T15:36:21.692Z,1160
2018-09-21T15:37:30.593Z,1360
2018-09-21T15:38:39.240Z,1256
2018-09-21T15:39:47.884Z,1376
2018-09-21T15:40:56.804Z,1532
2018-09-21T15:42:05.452Z,1328
2018-09-21T15:43:14.468Z,1336
2018-09-21T15:44:23.308Z,1296
2018-09-21T15:45:31.959Z,1236
2018-09-21T15:46:40.614Z,1340
2018-09-21T15:47:49.251Z,1216
2018-09-21T15:48:57.900Z,1168